Airfield :
LOGIN :

Register | Disclaimer

   EN    FR    IT 

 










Legend :    VFR   Marginal VFR   IFR   Intensive IFR   Very Intensive IFR
Visi :
Ceiling :
>= 8 km
>= 3000ft
5 to 8 km
1000 to 3000 ft
1500m to 5 km
500 to 1000 ft
800 to 1500m
200 to 500 ft
< 800m
< 200 ft
Symbols :   Thunderstorms  Fog  Heavy snow  Heavy precipitations  Wind > 20 kt
SIGMETs :     Misc.  Thunderstorms  Icing  Turbulence  Mountain Waves  Volcanic Ashes







- Airport Elevation : 348 ft
- IATA code : STN
- Download approach charts


EGSS - London Stansted

CURRENT METAR :
  • 171420Z AUTO 22011KT 180V250 9999 SCT046 22/11 Q1016

EXPIRED METARs :
  • 171350Z AUTO 21011KT 9999 SCT046 21/10 Q1017
  • 171320Z AUTO 20012KT 170V240 9999 SCT044 22/11 Q1017
  • 171250Z AUTO 21011KT 9999 BKN043 21/10 Q1017
  • 171220Z AUTO 21013KT 180V240 9999 SCT041 21/10 Q1017
  • 171150Z AUTO 21011KT 9999 FEW041 21/10 Q1017

TAF TAF EGSS
Valid from the 17 at 12:00 until the 18 at 18:00 UTC


171059Z 1712/1818 21012KT 9999 SCT035
BECMG 1801/1804 6000
PROB30
TEMPO 1802/1806 3000 BR BKN004
BECMG 1804/1807 9999
TEMPO 1812/1818 7000 RA SHRA
BECMG 1813/1816 VRB04KT
PROB40
TEMPO 1816/1818 BKN010
ATIS : +44 1279 669 325
No reported NOTAMs for that airfield.



MET'MAP, your aeronautical weather chart ! - Copyright ORBIFLY December 2007 - Disclaimer

ORBIFLY MET'MAP TEAM :

Programming & Development : Alexandra Zaïnal
Concept & Development : Baudouin d'Aumeries
Co-Development & Prog : Marc-Olivier Méhu
Technical & hardware support : Manuel Goepfert

Contact : metmap@orbifly.com




SOURCES & CREDITS :

   NOAA